CYSN

St Catharines / Niagara District Airport

St Catharines, , Canada
METAR CYSN 152000Z 35006KT 320V030 12SM SCT040TCU 30/20 A2996 RMK TCU3 SLP144 DENSITY ALT 2100FT
Observed Flight Rules
Jul-15 @ 20:00 UTC (an hour ago) Visual Flight Rules
Wind Visibility Clouds
350° at 6 knots 12 miles
  • Scattered at 4,000' AGL
Temperatures Readings
Current 30°C / 86°F
Dewpoint 20°C / 68°F
Humidity 55%
Altimeter 29.96" Hg
Pressure 1014.4 hPa
Elevation 98
METAR CYSN 152000Z 35006KT 320V030 12SM SCT040TCU 30/20 A2996 RMK TCU3 SLP144 DENSITY ALT 2100FT
Observed Flight Rules
Jul-15 @ 20:00 UTC
(an hour ago)
VFR
Wind Visibility
350° at 6 knots 12 miles
Clouds
  • Scattered at 4,000' AGL
Temperature Dewpoint
30°C / 86°F 20°C / 68°F
Humidity Altimeter Pressure
55% 29.96" Hg 1014.4 hPa